createdAt,value
2019-05-01T00:01:03.766Z,69.87
2019-05-01T00:04:03.779Z,69.83
2019-05-01T00:06:45.129Z,76.57
2019-05-01T00:09:20.680Z,73.90
2019-05-01T00:11:57.129Z,76.87
2019-05-01T00:14:31.914Z,71.60
2019-05-01T00:17:04.841Z,81.93
2019-05-01T00:19:37.709Z,81.07
2019-05-01T00:22:10.446Z,89.13
2019-05-01T00:24:43.259Z,83.10
2019-05-01T00:27:16.125Z,83.87
2019-05-01T00:29:49.451Z,72.60
2019-05-01T00:32:22.340Z,76.50
2019-05-01T00:34:55.050Z,66.60
2019-05-01T00:37:28.136Z,63.47
2019-05-01T00:40:00.887Z,71.60
2019-05-01T00:42:33.800Z,77.07
2019-05-01T00:45:07.512Z,77.80
2019-05-01T00:47:41.462Z,75.40
2019-05-01T00:50:14.346Z,63.97
2019-05-01T00:52:47.279Z,71.23
2019-05-01T00:55:38.488Z,64.53
2019-05-01T00:58:19.451Z,64.87
2019-05-01T01:01:10.490Z,59.73
2019-05-01T01:03:43.245Z,73.27
2019-05-01T01:06:17.038Z,67.63
2019-05-01T01:08:50.012Z,69.80
2019-05-01T01:11:22.791Z,72.47
2019-05-01T01:13:55.602Z,79.27
2019-05-01T01:16:28.567Z,77.87
2019-05-01T01:19:01.301Z,79.90
2019-05-01T01:21:34.065Z,90.00
2019-05-01T01:24:07.171Z,89.47
2019-05-01T01:26:40.046Z,82.80
2019-05-01T01:29:13.086Z,81.30
2019-05-01T01:31:45.906Z,76.80
2019-05-01T01:34:18.708Z,85.07
2019-05-01T01:36:51.393Z,86.67
2019-05-01T01:39:25.415Z,74.90
2019-05-01T01:41:58.425Z,71.53
2019-05-01T01:44:49.514Z,69.67
2019-05-01T01:47:23.182Z,77.37
2019-05-01T01:49:56.721Z,81.70
2019-05-01T01:52:29.731Z,91.00
2019-05-01T01:55:03.327Z,92.03
2019-05-01T01:57:36.226Z,87.83
2019-05-01T02:00:10.931Z,92.63
2019-05-01T02:02:49.557Z,65.60
2019-05-01T02:05:26.297Z,82.73
2019-05-01T02:07:59.029Z,79.90
2019-05-01T02:10:42.590Z,81.63
2019-05-01T02:13:06.763Z,82.37
2019-05-01T02:15:39.665Z,92.13
2019-05-01T02:18:12.498Z,83.17
2019-05-01T02:20:46.302Z,82.03
2019-05-01T02:23:19.147Z,84.27
2019-05-01T02:25:52.426Z,75.10
2019-05-01T02:28:31.577Z,68.83
2019-05-01T02:31:27.386Z,71.53
2019-05-01T02:33:47.091Z,68.07
2019-05-01T02:36:22.476Z,66.07
2019-05-01T02:38:57.048Z,60.30
2019-05-01T02:41:33.603Z,60.20
2019-05-01T02:44:12.116Z,58.07
2019-05-01T02:46:48.302Z,58.77
2019-05-01T02:49:37.700Z,64.83
2019-05-01T02:52:12.136Z,62.90
2019-05-01T02:54:46.690Z,62.70
2019-05-01T02:57:22.744Z,63.33
2019-05-01T02:59:57.361Z,65.60
2019-05-01T03:02:30.949Z,74.03
2019-05-01T03:05:04.042Z,78.80
2019-05-01T03:07:39.385Z,82.70
2019-05-01T03:10:13.180Z,85.33
2019-05-01T03:12:48.597Z,83.23
2019-05-01T03:15:22.430Z,79.60
2019-05-01T03:18:11.268Z,70.03
2019-05-01T03:21:06.636Z,81.27
2019-05-01T03:23:50.398Z,73.63
2019-05-01T03:26:23.308Z,68.83
2019-05-01T03:28:56.696Z,66.80
2019-05-01T03:31:29.556Z,70.20
2019-05-01T03:34:02.441Z,74.63
2019-05-01T03:36:35.357Z,68.10
2019-05-01T03:39:08.128Z,64.23
2019-05-01T03:41:41.448Z,63.00
2019-05-01T03:44:15.261Z,70.50
2019-05-01T03:46:48.298Z,71.37
2019-05-01T03:49:21.664Z,70.70
2019-05-01T03:51:54.515Z,88.23
2019-05-01T03:54:28.098Z,85.00
2019-05-01T03:57:01.554Z,83.57
2019-05-01T03:59:36.429Z,97.63
2019-05-01T04:02:35.218Z,91.97
2019-05-01T04:05:08.161Z,129.67
2019-05-01T04:07:41.174Z,137.60
2019-05-01T04:10:14.065Z,144.40
2019-05-01T04:12:46.874Z,157.67
2019-05-01T04:15:19.877Z,180.63
2019-05-01T04:17:54.849Z,186.77
2019-05-01T04:20:28.989Z,121.80
2019-05-01T04:23:01.955Z,136.53
2019-05-01T04:25:35.584Z,93.60
2019-05-01T04:28:26.676Z,81.57
2019-05-01T04:31:16.950Z,100.30
2019-05-01T04:33:51.981Z,115.60
2019-05-01T04:36:30.165Z,126.87
2019-05-01T04:39:05.111Z,114.87
2019-05-01T04:41:38.152Z,108.60
2019-05-01T04:44:11.069Z,149.23
2019-05-01T04:46:43.956Z,187.37
2019-05-01T04:49:18.188Z,488.10
2019-05-01T04:51:51.181Z,321.30
2019-05-01T04:54:24.393Z,346.47
2019-05-01T04:56:57.159Z,355.47
2019-05-01T04:59:30.109Z,405.43
2019-05-01T05:02:05.141Z,308.67
2019-05-01T05:04:38.259Z,449.77
2019-05-01T05:07:11.267Z,444.30
2019-05-01T05:09:47.344Z,244.00
2019-05-01T05:12:35.593Z,246.53
2019-05-01T05:15:44.354Z,255.43
2019-05-01T05:18:17.229Z,183.40
2019-05-01T05:20:50.397Z,162.50
2019-05-01T05:23:23.799Z,130.40
2019-05-01T05:25:56.960Z,287.87
2019-05-01T05:28:31.392Z,153.47
2019-05-01T05:31:05.774Z,140.50
2019-05-01T05:33:39.739Z,170.60
2019-05-01T05:36:15.495Z,127.40
2019-05-01T05:39:08.296Z,306.47
2019-05-01T05:41:42.368Z,215.97
2019-05-01T05:44:15.277Z,404.70
2019-05-01T05:46:48.327Z,448.67
2019-05-01T05:49:22.297Z,261.20
2019-05-01T05:52:11.675Z,164.20
2019-05-01T05:54:58.310Z,151.73
2019-05-01T05:58:22.653Z,163.87
2019-05-01T06:01:20.138Z,216.57
2019-05-01T06:04:22.998Z,112.77
2019-05-01T06:07:24.781Z,270.77
2019-05-01T06:10:27.785Z,266.37
2019-05-01T06:13:10.273Z,132.63
2019-05-01T06:15:59.211Z,130.40
2019-05-01T06:18:41.548Z,225.03
2019-05-01T06:21:34.798Z,116.10
2019-05-01T06:24:16.249Z,133.77
2019-05-01T06:26:50.145Z,123.93
2019-05-01T06:29:24.131Z,128.67
2019-05-01T06:31:58.846Z,241.93
2019-05-01T06:34:31.791Z,202.63
2019-05-01T06:37:04.650Z,230.33
2019-05-01T06:39:37.866Z,160.47
2019-05-01T06:42:14.994Z,162.33
2019-05-01T06:44:55.009Z,148.13
2019-05-01T06:47:33.409Z,186.00
2019-05-01T06:50:36.998Z,195.30
2019-05-01T06:53:10.385Z,140.47
2019-05-01T06:55:43.652Z,150.10
2019-05-01T06:58:20.568Z,163.33
2019-05-01T07:00:51.713Z,283.07
2019-05-01T07:03:24.697Z,197.67
2019-05-01T07:05:57.912Z,171.53
2019-05-01T07:08:34.244Z,245.07
2019-05-01T07:11:05.617Z,278.63
2019-05-01T07:13:50.631Z,138.10
2019-05-01T07:16:23.645Z,143.03
2019-05-01T07:19:04.231Z,128.20
2019-05-01T07:21:34.159Z,119.27
2019-05-01T07:24:07.118Z,131.00
2019-05-01T07:26:43.924Z,129.77
2019-05-01T07:29:17.406Z,153.93
2019-05-01T07:31:50.386Z,163.82
2019-05-01T07:34:26.207Z,160.20
2019-05-01T07:36:58.696Z,222.37
2019-05-01T07:39:32.748Z,218.97
2019-05-01T07:42:23.862Z,232.40
2019-05-01T07:45:03.854Z,213.67
2019-05-01T07:47:40.546Z,202.10
2019-05-01T07:50:15.872Z,182.80
2019-05-01T07:52:52.338Z,151.43
2019-05-01T07:55:35.961Z,139.50
2019-05-01T07:58:10.282Z,140.50
2019-05-01T08:00:50.862Z,158.85
2019-05-01T08:03:23.720Z,146.22
2019-05-01T08:05:56.541Z,157.22
2019-05-01T08:08:29.365Z,162.97
2019-05-01T08:11:05.418Z,175.68
2019-05-01T08:13:37.342Z,171.47
2019-05-01T08:16:10.276Z,194.13
2019-05-01T08:18:51.499Z,210.33
2019-05-01T08:22:03.076Z,201.50
2019-05-01T08:24:36.307Z,213.50
2019-05-01T08:27:20.221Z,198.30
2019-05-01T08:29:57.442Z,168.17
2019-05-01T08:32:53.853Z,185.28
2019-05-01T08:35:31.791Z,202.57
2019-05-01T08:38:02.504Z,202.05
2019-05-01T08:40:37.240Z,204.00
2019-05-01T08:43:13.790Z,219.40
2019-05-01T08:46:05.713Z,206.07
2019-05-01T08:49:06.726Z,198.90
2019-05-01T08:51:38.866Z,194.43
2019-05-01T08:54:11.947Z,208.97
2019-05-01T08:56:44.767Z,224.92
2019-05-01T08:59:19.448Z,194.15
2019-05-01T09:02:08.476Z,226.22
2019-05-01T09:04:30.501Z,222.70
2019-05-01T09:07:02.840Z,232.83
2019-05-01T09:09:39.922Z,227.97
2019-05-01T09:12:11.737Z,223.72
2019-05-01T09:14:45.288Z,214.93
2019-05-01T09:17:18.119Z,197.30
2019-05-01T09:19:50.939Z,211.03
2019-05-01T09:22:23.842Z,204.60
2019-05-01T09:24:59.870Z,193.70
2019-05-01T09:27:47.898Z,224.18
2019-05-01T09:30:34.138Z,185.00
2019-05-01T09:33:07.263Z,199.27
2019-05-01T09:35:45.176Z,206.90
2019-05-01T09:38:14.808Z,227.47
2019-05-01T09:40:47.591Z,237.90
2019-05-01T09:43:20.457Z,225.05
2019-05-01T09:45:53.222Z,219.53
2019-05-01T09:48:26.113Z,216.60
2019-05-01T09:51:18.649Z,210.05
2019-05-01T09:54:00.325Z,192.75
2019-05-01T09:56:33.094Z,212.27
2019-05-01T09:59:06.070Z,212.80
2019-05-01T10:01:40.027Z,215.12
2019-05-01T10:04:13.143Z,201.20
2019-05-01T10:06:47.635Z,201.90
2019-05-01T10:09:20.710Z,175.55
2019-05-01T10:11:53.575Z,184.22
2019-05-01T10:14:26.488Z,174.77
2019-05-01T10:16:59.483Z,177.15
2019-05-01T10:19:32.303Z,172.05
2019-05-01T10:22:05.258Z,166.18
2019-05-01T10:24:39.367Z,180.45
2019-05-01T10:27:17.191Z,145.53
2019-05-01T10:30:22.265Z,174.32
2019-05-01T10:33:02.165Z,185.10
2019-05-01T10:35:43.279Z,174.05
2019-05-01T10:38:16.439Z,153.40
2019-05-01T10:40:49.537Z,149.25
2019-05-01T10:43:22.648Z,158.97
2019-05-01T10:45:55.618Z,157.78
2019-05-01T10:48:28.354Z,149.30
2019-05-01T10:51:01.333Z,142.57
2019-05-01T10:53:34.098Z,149.05
2019-05-01T10:56:07.102Z,147.35
2019-05-01T10:58:39.998Z,145.57
2019-05-01T11:01:18.901Z,151.30
2019-05-01T11:03:51.803Z,142.87
2019-05-01T11:06:24.932Z,210.45
2019-05-01T11:08:59.015Z,143.35
2019-05-01T11:11:32.134Z,164.82
2019-05-01T11:14:04.999Z,136.12
2019-05-01T11:16:38.993Z,144.35
2019-05-01T11:19:12.019Z,146.75
2019-05-01T11:21:44.964Z,146.45
2019-05-01T11:24:17.780Z,171.72
2019-05-01T11:26:50.890Z,150.32
2019-05-01T11:29:23.855Z,144.55
2019-05-01T11:32:19.899Z,172.28
2019-05-01T11:34:58.571Z,146.02
2019-05-01T11:37:56.760Z,157.05
2019-05-01T11:40:36.089Z,161.90
2019-05-01T11:43:08.891Z,164.70
2019-05-01T11:45:41.770Z,158.05
2019-05-01T11:48:14.755Z,138.47
2019-05-01T11:50:47.865Z,162.10
2019-05-01T11:53:20.929Z,155.12
2019-05-01T11:55:53.816Z,166.97
2019-05-01T11:58:27.066Z,159.72
2019-05-01T12:01:01.534Z,161.32
2019-05-01T12:03:35.879Z,160.63
2019-05-01T12:06:21.857Z,160.85
2019-05-01T12:08:44.530Z,175.65
2019-05-01T12:11:19.119Z,152.40
2019-05-01T12:13:52.035Z,166.68
2019-05-01T12:16:43.245Z,176.15
2019-05-01T12:19:16.300Z,177.55
2019-05-01T12:21:49.425Z,160.30
2019-05-01T12:24:22.357Z,163.75
2019-05-01T12:26:55.269Z,164.70
2019-05-01T12:29:28.057Z,174.90
2019-05-01T12:32:01.099Z,169.68
2019-05-01T12:34:34.070Z,152.95
2019-05-01T12:37:35.406Z,158.57
2019-05-01T12:40:09.881Z,157.37
2019-05-01T12:42:42.664Z,179.82
2019-05-01T12:45:16.291Z,165.92
2019-05-01T12:48:01.258Z,165.73
2019-05-01T12:50:34.156Z,163.85
2019-05-01T12:53:32.711Z,163.65
2019-05-01T12:56:17.406Z,169.32
2019-05-01T12:58:50.291Z,160.78
2019-05-01T13:01:23.512Z,159.32
2019-05-01T13:03:56.606Z,155.40
2019-05-01T13:06:29.469Z,159.10
2019-05-01T13:09:03.015Z,139.95
2019-05-01T13:11:37.662Z,160.20
2019-05-01T13:14:10.681Z,160.12
2019-05-01T13:16:43.815Z,149.60
2019-05-01T13:19:16.638Z,161.75
2019-05-01T13:21:49.513Z,171.22
2019-05-01T13:24:27.811Z,172.17
2019-05-01T13:27:15.455Z,172.28
2019-05-01T13:30:07.827Z,171.90
2019-05-01T13:32:43.363Z,176.45
2019-05-01T13:35:16.417Z,179.45
2019-05-01T13:37:49.478Z,188.07
2019-05-01T13:40:22.411Z,172.60
2019-05-01T13:42:55.356Z,177.15
2019-05-01T13:45:28.337Z,177.32
2019-05-01T13:48:01.512Z,176.80
2019-05-01T13:50:34.636Z,168.72
2019-05-01T13:53:07.376Z,175.22
2019-05-01T13:55:40.380Z,188.65
2019-05-01T13:58:13.157Z,173.82
2019-05-01T14:00:46.002Z,176.60
2019-05-01T14:03:18.830Z,170.92
2019-05-01T14:05:51.667Z,159.95
2019-05-01T14:08:24.615Z,178.38
2019-05-01T14:10:57.755Z,194.82
2019-05-01T14:13:30.686Z,174.77
2019-05-01T14:16:03.923Z,169.70
2019-05-01T14:18:36.865Z,174.65
2019-05-01T14:21:26.427Z,191.03
2019-05-01T14:24:28.000Z,166.60
2019-05-01T14:27:00.991Z,155.03
2019-05-01T14:29:34.054Z,160.22
2019-05-01T14:32:06.967Z,157.88
2019-05-01T14:34:39.851Z,156.22
2019-05-01T14:37:12.731Z,151.18
2019-05-01T14:39:46.035Z,142.60
2019-05-01T14:42:18.977Z,142.60
2019-05-01T14:44:51.885Z,128.97
2019-05-01T14:47:24.967Z,134.10
2019-05-01T14:49:57.863Z,115.55
2019-05-01T14:52:30.877Z,120.10
2019-05-01T14:55:04.586Z,139.10
2019-05-01T14:57:37.427Z,127.70
2019-05-01T15:00:11.296Z,123.00
2019-05-01T15:02:44.153Z,121.67
2019-05-01T15:05:17.048Z,126.90
2019-05-01T15:07:50.257Z,124.25
2019-05-01T15:10:23.383Z,121.47
2019-05-01T15:12:57.986Z,126.25
2019-05-01T15:15:54.811Z,114.72
2019-05-01T15:18:46.128Z,111.75
2019-05-01T15:21:20.109Z,105.32
2019-05-01T15:23:53.888Z,110.15
2019-05-01T15:26:26.953Z,114.55
2019-05-01T15:28:59.912Z,109.70
2019-05-01T15:31:32.959Z,106.58
2019-05-01T15:34:05.838Z,105.95
2019-05-01T15:36:38.888Z,117.30
2019-05-01T15:39:18.901Z,113.05
2019-05-01T15:42:11.445Z,111.47
2019-05-01T15:44:44.487Z,110.85
2019-05-01T15:47:17.582Z,105.78
2019-05-01T15:49:51.542Z,109.17
2019-05-01T15:52:24.402Z,100.00
2019-05-01T15:54:57.347Z,107.17
2019-05-01T15:57:30.324Z,100.15
2019-05-01T16:00:05.402Z,101.50
2019-05-01T16:02:40.287Z,96.53
2019-05-01T16:05:13.324Z,105.52
2019-05-01T16:07:46.128Z,103.60
2019-05-01T16:10:23.600Z,94.85
2019-05-01T16:13:00.890Z,96.00
2019-05-01T16:15:34.814Z,98.33
2019-05-01T16:18:07.577Z,92.42
2019-05-01T16:20:40.695Z,99.07
2019-05-01T16:23:13.735Z,103.15
2019-05-01T16:25:46.723Z,151.70
2019-05-01T16:28:19.504Z,93.72
2019-05-01T16:30:52.355Z,100.50
2019-05-01T16:33:25.143Z,92.45
2019-05-01T16:35:58.125Z,118.47
2019-05-01T16:38:42.454Z,89.13
2019-05-01T16:41:15.694Z,94.22
2019-05-01T16:43:48.443Z,91.57
2019-05-01T16:46:21.387Z,82.62
2019-05-01T16:48:54.304Z,80.40
2019-05-01T16:51:27.127Z,81.40
2019-05-01T16:54:00.123Z,78.00
2019-05-01T16:56:33.298Z,84.87
2019-05-01T16:59:07.473Z,81.40
2019-05-01T17:01:53.313Z,85.55
2019-05-01T17:04:58.099Z,115.60
2019-05-01T17:07:39.220Z,74.60
2019-05-01T17:10:25.398Z,223.15
2019-05-01T17:12:58.309Z,99.25
2019-05-01T17:15:39.712Z,82.78
2019-05-01T17:18:13.643Z,81.45
2019-05-01T17:20:46.803Z,72.27
2019-05-01T17:23:19.996Z,77.03
2019-05-01T17:25:52.884Z,69.40
2019-05-01T17:28:26.009Z,73.72
2019-05-01T17:31:00.381Z,69.35
2019-05-01T17:33:33.342Z,68.67
2019-05-01T17:36:06.164Z,68.30
2019-05-01T17:38:49.058Z,67.25
2019-05-01T17:41:13.914Z,63.85
2019-05-01T17:43:49.478Z,70.50
2019-05-01T17:46:21.668Z,67.42
2019-05-01T17:48:54.859Z,68.05
2019-05-01T17:51:27.664Z,69.00
2019-05-01T17:54:00.686Z,64.00
2019-05-01T17:56:33.461Z,63.73
2019-05-01T17:59:06.277Z,65.72
2019-05-01T18:02:05.330Z,65.92
2019-05-01T18:04:50.200Z,69.17
2019-05-01T18:07:23.745Z,68.05
2019-05-01T18:09:56.982Z,70.50
2019-05-01T18:12:30.259Z,72.95
2019-05-01T18:15:04.039Z,74.05
2019-05-01T18:17:37.100Z,68.22
2019-05-01T18:20:10.059Z,73.47
2019-05-01T18:23:02.530Z,73.15
2019-05-01T18:25:54.797Z,74.17
2019-05-01T18:28:45.213Z,74.12
2019-05-01T18:31:23.001Z,71.72
2019-05-01T18:33:57.003Z,79.27
2019-05-01T18:36:36.254Z,77.30
2019-05-01T18:39:17.172Z,84.30
2019-05-01T18:41:54.052Z,80.35
2019-05-01T18:44:26.996Z,78.90
2019-05-01T18:46:59.866Z,85.90
2019-05-01T18:49:52.252Z,81.02
2019-05-01T18:52:25.209Z,86.25
2019-05-01T18:54:58.096Z,95.92
2019-05-01T18:57:31.195Z,90.28
2019-05-01T19:00:04.589Z,83.30
2019-05-01T19:02:39.062Z,88.65
2019-05-01T19:05:12.171Z,89.13
2019-05-01T19:07:45.270Z,87.40
2019-05-01T19:10:18.671Z,86.92
2019-05-01T19:12:51.725Z,87.55
2019-05-01T19:15:25.627Z,103.22
2019-05-01T19:17:59.199Z,102.05
2019-05-01T19:20:32.186Z,114.35
2019-05-01T19:23:05.070Z,113.57
2019-05-01T19:25:37.957Z,96.15
2019-05-01T19:28:11.371Z,77.17
2019-05-01T19:30:44.285Z,84.37
2019-05-01T19:33:17.140Z,78.33
2019-05-01T19:35:50.086Z,77.82
2019-05-01T19:38:23.708Z,79.30
2019-05-01T19:40:56.699Z,75.83
2019-05-01T19:43:29.840Z,77.65
2019-05-01T19:46:02.896Z,75.62
2019-05-01T19:48:36.139Z,78.87
2019-05-01T19:51:09.044Z,82.10
2019-05-01T19:53:46.379Z,83.27
2019-05-01T19:56:21.554Z,87.35
2019-05-01T19:58:52.237Z,91.20
2019-05-01T20:01:26.024Z,80.62
2019-05-01T20:03:59.973Z,83.85
2019-05-01T20:06:32.896Z,81.28
2019-05-01T20:09:07.611Z,80.47
2019-05-01T20:11:42.345Z,80.30
2019-05-01T20:14:15.212Z,78.78
2019-05-01T20:16:50.831Z,80.55
2019-05-01T20:19:23.228Z,75.97
2019-05-01T20:21:56.090Z,81.02
2019-05-01T20:24:29.282Z,86.05
2019-05-01T20:27:02.206Z,81.57
2019-05-01T20:29:36.797Z,76.72
2019-05-01T20:32:09.777Z,78.55
2019-05-01T20:34:42.735Z,81.50
2019-05-01T20:37:15.521Z,86.78
2019-05-01T20:39:48.258Z,85.90
2019-05-01T20:42:21.347Z,87.88
2019-05-01T20:45:04.368Z,92.33
2019-05-01T20:47:35.269Z,85.85
2019-05-01T20:50:05.893Z,88.72
2019-05-01T20:52:39.979Z,85.00
2019-05-01T20:55:13.341Z,86.47
2019-05-01T20:57:46.811Z,84.58
2019-05-01T21:00:22.682Z,81.78
2019-05-01T21:02:55.614Z,80.57
2019-05-01T21:05:34.192Z,83.80
2019-05-01T21:08:10.996Z,86.85
2019-05-01T21:10:50.661Z,87.00
2019-05-01T21:13:25.052Z,93.52
2019-05-01T21:16:01.802Z,91.30
2019-05-01T21:18:33.273Z,96.97
2019-05-01T21:21:06.227Z,101.10
2019-05-01T21:23:39.365Z,97.37
2019-05-01T21:26:13.784Z,103.00
2019-05-01T21:28:46.758Z,105.58
2019-05-01T21:31:19.576Z,106.90
2019-05-01T21:33:53.595Z,105.47
2019-05-01T21:36:26.738Z,108.37
2019-05-01T21:38:59.718Z,108.13
2019-05-01T21:41:32.908Z,110.80
2019-05-01T21:44:06.801Z,104.77
2019-05-01T21:46:39.942Z,117.43
2019-05-01T21:49:13.100Z,108.33
2019-05-01T21:51:46.374Z,117.13
2019-05-01T21:54:20.714Z,118.07
2019-05-01T21:56:54.044Z,121.27
2019-05-01T21:59:28.088Z,125.33
2019-05-01T22:02:01.141Z,133.30
2019-05-01T22:04:34.398Z,123.43
2019-05-01T22:07:07.728Z,128.27
2019-05-01T22:09:40.637Z,127.70
2019-05-01T22:12:14.456Z,135.50
2019-05-01T22:14:52.343Z,132.07
2019-05-01T22:17:44.814Z,128.87
2019-05-01T22:20:22.978Z,124.57
2019-05-01T22:23:00.964Z,120.53
2019-05-01T22:25:37.433Z,118.90
2019-05-01T22:28:38.447Z,126.37
2019-05-01T22:31:36.547Z,119.73
2019-05-01T22:34:24.263Z,128.43
2019-05-01T22:36:58.192Z,129.73
2019-05-01T22:39:33.023Z,127.33
2019-05-01T22:42:06.032Z,119.73
2019-05-01T22:44:39.223Z,133.80
2019-05-01T22:47:15.156Z,134.57
2019-05-01T22:49:46.928Z,131.60
2019-05-01T22:52:19.847Z,137.27
2019-05-01T22:54:52.782Z,136.37
2019-05-01T22:57:25.637Z,139.63
2019-05-01T22:59:58.469Z,151.90
2019-05-01T23:02:37.324Z,141.20
2019-05-01T23:05:10.862Z,136.50
2019-05-01T23:07:43.786Z,156.40
2019-05-01T23:10:16.923Z,152.00
2019-05-01T23:12:49.641Z,146.03
2019-05-01T23:15:24.441Z,138.60
2019-05-01T23:17:57.411Z,134.90
2019-05-01T23:20:30.222Z,132.47
2019-05-01T23:23:02.980Z,133.53
2019-05-01T23:25:41.176Z,134.67
2019-05-01T23:28:12.004Z,134.20
2019-05-01T23:30:45.169Z,143.83
2019-05-01T23:33:18.029Z,137.07
2019-05-01T23:35:50.983Z,133.93
2019-05-01T23:38:23.792Z,126.57
2019-05-01T23:40:56.819Z,108.77
2019-05-01T23:43:29.788Z,101.20
2019-05-01T23:46:02.699Z,97.03
2019-05-01T23:48:35.712Z,105.30
2019-05-01T23:51:08.639Z,105.13
2019-05-01T23:53:44.334Z,107.30
2019-05-01T23:56:16.289Z,102.90
2019-05-01T23:58:49.393Z,103.37
